Caldas, Brazil
Current Conditions -  °F | °C
As of 5:00 PM on Tuesday 27 Jan 2015 (Local Time) from SBKP Reporting Station
Rain Showers Rain Showers  
Wind Chill: 82°   Ceiling: Unl
Heat Index: 84°   Visibility: 6mi
Dew Point: 64°   Wind: 3mph
Humidity: 54%   Direction: 360°N
Pressure: NA   Gusts: NA
Location:  21.92°S, 46.39°W
Report Text: SBKP 271900Z 36003KT 9999 VCSH SCT040 FEW045TCU SCT090 28/18 Q1015
Loading
Personal Weather Stations






























Interactive Weather Map New forecast layout! Learn more

10-Day Weather Forecast

Advertisements
Track Severe Weather on mobile